createdAt,value
2018-07-02T00:00:40.078Z,94220.38
2018-07-02T00:03:09.378Z,94228.00
2018-07-02T00:05:49.417Z,94224.49
2018-07-02T00:08:19.351Z,94220.16
2018-07-02T00:10:49.259Z,94219.70
2018-07-02T00:13:18.718Z,94224.68
2018-07-02T00:15:48.987Z,94217.38
2018-07-02T00:18:19.763Z,94216.73
2018-07-02T00:20:49.190Z,94218.94
2018-07-02T00:23:19.344Z,94219.19
2018-07-02T00:25:49.701Z,94217.64
2018-07-02T00:28:19.698Z,94213.84
2018-07-02T00:30:50.477Z,94214.14
2018-07-02T00:33:20.527Z,94213.23
2018-07-02T00:35:51.309Z,94206.55
2018-07-02T00:38:20.741Z,94209.84
2018-07-02T00:40:50.442Z,94205.24
2018-07-02T00:43:19.866Z,94206.98
2018-07-02T00:45:49.981Z,94205.10
2018-07-02T00:48:19.895Z,94204.23
2018-07-02T00:50:50.372Z,94201.30
2018-07-02T00:53:20.180Z,94199.33
2018-07-02T00:55:49.702Z,94199.32
2018-07-02T00:58:18.994Z,94208.87
2018-07-02T01:00:48.301Z,94202.38
2018-07-02T01:03:17.544Z,94197.02
2018-07-02T01:05:46.819Z,94195.16
2018-07-02T01:08:17.250Z,94195.42
2018-07-02T01:10:47.914Z,94198.63
2018-07-02T01:13:17.491Z,94192.58
2018-07-02T01:15:47.034Z,94182.69
2018-07-02T01:18:16.574Z,94183.75
2018-07-02T01:20:46.163Z,94188.09
2018-07-02T01:23:15.808Z,94190.91
2018-07-02T01:25:46.364Z,94187.09
2018-07-02T01:28:15.861Z,94182.47
2018-07-02T01:30:45.110Z,94181.82
2018-07-02T01:33:15.803Z,94183.91
2018-07-02T01:35:46.050Z,94182.17
2018-07-02T01:38:16.513Z,94182.57
2018-07-02T01:40:45.924Z,94180.40
2018-07-02T01:43:15.403Z,94182.20
2018-07-02T01:45:44.724Z,94182.20
2018-07-02T01:48:14.039Z,94184.17
2018-07-02T01:50:44.363Z,94180.27
2018-07-02T01:53:13.910Z,94176.50
2018-07-02T01:55:44.002Z,94176.22
2018-07-02T01:58:13.536Z,94178.39
2018-07-02T02:00:43.084Z,94174.20
2018-07-02T02:03:12.571Z,94179.95
2018-07-02T02:05:43.186Z,94179.38
2018-07-02T02:08:13.547Z,94179.25
2018-07-02T02:10:42.993Z,94170.42
2018-07-02T02:13:12.838Z,94171.98
2018-07-02T02:15:42.561Z,94170.63
2018-07-02T02:18:12.110Z,94175.12
2018-07-02T02:20:41.973Z,94180.77
2018-07-02T02:23:11.424Z,94182.47
2018-07-02T02:25:40.712Z,94180.68
2018-07-02T02:28:10.123Z,94180.27
2018-07-02T02:30:39.557Z,94179.97
2018-07-02T02:33:09.092Z,94180.48
2018-07-02T02:35:38.429Z,94180.05
2018-07-02T02:38:07.875Z,94179.72
2018-07-02T02:40:37.394Z,94188.17
2018-07-02T02:43:06.835Z,94177.92
2018-07-02T02:45:36.166Z,94179.29
2018-07-02T02:48:05.591Z,94174.94
2018-07-02T02:50:36.104Z,94176.86
2018-07-02T02:53:05.935Z,94175.48
2018-07-02T02:55:35.466Z,94176.11
2018-07-02T02:58:05.245Z,94175.48
2018-07-02T03:00:35.285Z,94178.52
2018-07-02T03:03:04.689Z,94174.92
2018-07-02T03:05:34.082Z,94180.61
2018-07-02T03:08:03.780Z,94180.31
2018-07-02T03:10:33.341Z,94183.02
2018-07-02T03:13:04.552Z,94181.69
2018-07-02T03:15:33.930Z,94176.00
2018-07-02T03:18:03.466Z,94173.60
2018-07-02T03:20:33.692Z,94177.66
2018-07-02T03:23:03.822Z,94172.87
2018-07-02T03:25:33.171Z,94172.48
2018-07-02T03:28:02.857Z,94175.50
2018-07-02T03:30:32.213Z,94173.11
2018-07-02T03:33:02.416Z,94166.30
2018-07-02T03:35:32.106Z,94169.56
2018-07-02T03:38:02.039Z,94167.22
2018-07-02T03:40:32.539Z,94169.38
2018-07-02T03:43:01.874Z,94173.67
2018-07-02T03:45:31.206Z,94174.50
2018-07-02T03:48:00.581Z,94166.61
2018-07-02T03:50:29.889Z,94165.81
2018-07-02T03:52:59.320Z,94165.11
2018-07-02T03:55:29.491Z,94164.10
2018-07-02T03:57:59.199Z,94168.31
2018-07-02T04:00:28.600Z,94166.78
2018-07-02T04:02:58.640Z,94165.42
2018-07-02T04:05:28.052Z,94161.95
2018-07-02T04:07:57.684Z,94166.39
2018-07-02T04:10:27.147Z,94163.74
2018-07-02T04:12:56.580Z,94160.86
2018-07-02T04:15:25.911Z,94165.16
2018-07-02T04:17:56.100Z,94161.38
2018-07-02T04:20:26.236Z,94165.77
2018-07-02T04:22:56.164Z,94165.31
2018-07-02T04:25:25.413Z,94165.38
2018-07-02T04:27:54.727Z,94157.28
2018-07-02T04:30:24.142Z,94159.36
2018-07-02T04:32:54.000Z,94161.97
2018-07-02T04:35:23.852Z,94164.77
2018-07-02T04:37:53.514Z,94163.89
2018-07-02T04:40:23.193Z,94165.03
2018-07-02T04:42:52.407Z,94161.42
2018-07-02T04:45:21.871Z,94163.11
2018-07-02T04:47:51.579Z,94164.09
2018-07-02T04:50:21.245Z,94158.77
2018-07-02T04:52:51.766Z,94155.64
2018-07-02T04:55:21.246Z,94158.20
2018-07-02T04:57:51.551Z,94154.13
2018-07-02T05:00:21.226Z,94164.16
2018-07-02T05:02:51.924Z,94160.73
2018-07-02T05:05:21.289Z,94156.25
2018-07-02T05:07:50.635Z,94155.08
2018-07-02T05:10:20.233Z,94158.40
2018-07-02T05:12:49.704Z,94152.95
2018-07-02T05:15:19.104Z,94157.83
2018-07-02T05:17:48.883Z,94151.15
2018-07-02T05:20:18.341Z,94157.93
2018-07-02T05:22:47.589Z,94155.48
2018-07-02T05:25:16.872Z,94149.17
2018-07-02T05:27:46.228Z,94150.50
2018-07-02T05:30:15.514Z,94148.19
2018-07-02T05:32:44.759Z,94155.53
2018-07-02T05:35:14.914Z,94147.86
2018-07-02T05:37:44.093Z,94139.11
2018-07-02T05:40:14.092Z,94144.39
2018-07-02T05:42:43.931Z,94138.89
2018-07-02T05:45:13.634Z,94134.31
2018-07-02T05:47:44.059Z,94133.91
2018-07-02T05:50:14.640Z,94137.96
2018-07-02T05:52:44.126Z,94130.42
2018-07-02T05:55:13.437Z,94126.27
2018-07-02T05:57:42.634Z,94122.02
2018-07-02T06:00:12.720Z,94123.75
2018-07-02T06:02:42.122Z,94123.85
2018-07-02T06:05:11.465Z,94119.52
2018-07-02T06:07:41.032Z,94120.72
2018-07-02T06:10:10.779Z,94116.17
2018-07-02T06:12:40.458Z,94107.47
2018-07-02T06:15:11.795Z,94108.92
2018-07-02T06:17:42.198Z,94109.70
2018-07-02T06:20:12.161Z,94109.63
2018-07-02T06:22:41.550Z,94111.39
2018-07-02T06:25:11.730Z,94099.92
2018-07-02T06:27:41.124Z,94092.75
2018-07-02T06:30:10.563Z,94091.48
2018-07-02T06:32:40.277Z,94091.23
2018-07-02T06:35:09.990Z,94089.61
2018-07-02T06:37:39.331Z,94089.66
2018-07-02T06:40:08.677Z,94085.17
2018-07-02T06:42:38.710Z,94081.89
2018-07-02T06:45:08.436Z,94071.03
2018-07-02T06:47:37.895Z,94087.86
2018-07-02T06:50:08.497Z,94083.64
2018-07-02T06:52:37.981Z,94079.19
2018-07-02T06:55:07.316Z,94072.88
2018-07-02T06:57:36.919Z,94072.59
2018-07-02T07:00:07.246Z,94072.03
2018-07-02T07:02:38.190Z,94068.94
2018-07-02T07:05:07.592Z,94064.84
2018-07-02T07:07:37.694Z,94069.63
2018-07-02T07:10:07.057Z,94060.94
2018-07-02T07:12:36.869Z,94060.34
2018-07-02T07:15:07.079Z,94064.90
2018-07-02T07:17:36.651Z,94064.69
2018-07-02T07:20:06.402Z,94060.16
2018-07-02T07:22:35.799Z,94054.17
2018-07-02T07:25:05.214Z,94058.41
2018-07-02T07:27:35.605Z,94043.65
2018-07-02T07:30:05.581Z,94045.03
2018-07-02T07:32:35.021Z,94045.81
2018-07-02T07:35:04.982Z,94047.84
2018-07-02T07:37:35.401Z,94047.91
2018-07-02T07:40:04.868Z,94045.60
2018-07-02T07:42:34.395Z,94041.25
2018-07-02T07:45:03.869Z,94046.70
2018-07-02T07:47:33.961Z,94041.33
2018-07-02T07:50:04.576Z,94036.43
2018-07-02T07:52:33.925Z,94034.53
2018-07-02T07:55:03.154Z,94033.34
2018-07-02T07:57:32.751Z,94036.45
2018-07-02T08:00:02.482Z,94031.13
2018-07-02T08:02:31.804Z,94024.09
2018-07-02T08:05:01.660Z,94031.52
2018-07-02T08:07:30.911Z,94030.11
2018-07-02T08:10:00.512Z,94011.47
2018-07-02T08:12:31.319Z,94019.52
2018-07-02T08:15:00.934Z,94013.55
2018-07-02T08:17:30.380Z,94013.80
2018-07-02T08:19:59.680Z,94013.22
2018-07-02T08:22:29.121Z,94013.69
2018-07-02T08:24:58.562Z,94011.64
2018-07-02T08:27:27.799Z,94005.72
2018-07-02T08:29:57.131Z,94009.97
2018-07-02T08:32:26.882Z,93994.66
2018-07-02T08:34:56.402Z,93989.92
2018-07-02T08:37:26.196Z,93990.91
2018-07-02T08:39:55.757Z,93988.88
2018-07-02T08:42:25.964Z,93985.79
2018-07-02T08:44:55.692Z,93979.05
2018-07-02T08:47:25.121Z,93969.40
2018-07-02T08:49:54.858Z,93973.53
2018-07-02T08:52:24.429Z,93971.67
2018-07-02T08:54:53.855Z,93966.88
2018-07-02T08:57:23.341Z,93966.14
2018-07-02T08:59:52.582Z,93959.25
2018-07-02T09:02:21.854Z,93956.84
2018-07-02T09:04:52.417Z,93957.24
2018-07-02T09:07:21.784Z,93959.27
2018-07-02T09:09:51.252Z,93951.66
2018-07-02T09:12:21.869Z,93953.19
2018-07-02T09:14:51.685Z,93948.95
2018-07-02T09:17:21.372Z,93945.66
2018-07-02T09:19:51.257Z,93945.24
2018-07-02T09:22:20.937Z,93943.19
2018-07-02T09:24:50.285Z,93942.80
2018-07-02T09:27:19.624Z,93944.38
2018-07-02T09:29:50.561Z,93939.47
2018-07-02T09:32:20.645Z,93941.71
2018-07-02T09:34:50.212Z,93933.67
2018-07-02T09:37:19.540Z,93932.41
2018-07-02T09:39:48.925Z,93928.09
2018-07-02T09:42:19.664Z,93930.02
2018-07-02T09:44:49.356Z,93921.59
2018-07-02T09:47:18.675Z,93917.03
2018-07-02T09:49:48.210Z,93918.45
2018-07-02T09:52:17.685Z,93916.15
2018-07-02T09:54:48.333Z,93913.56
2018-07-02T09:57:18.257Z,93913.11
2018-07-02T09:59:48.234Z,93909.79
2018-07-02T10:02:17.331Z,93905.63
2018-07-02T10:04:46.368Z,93906.66
2018-07-02T10:07:15.468Z,93906.92
2018-07-02T10:09:44.524Z,93891.59
2018-07-02T10:12:15.602Z,93889.14
2018-07-02T10:14:44.650Z,93889.88
2018-07-02T10:17:15.752Z,93887.06
2018-07-02T10:19:44.891Z,93886.28
2018-07-02T10:22:14.109Z,93885.12
2018-07-02T10:24:43.420Z,93875.16
2018-07-02T10:27:12.498Z,93880.01
2018-07-02T10:29:41.592Z,93874.78
2018-07-02T10:32:10.707Z,93872.83
2018-07-02T10:34:39.833Z,93871.03
2018-07-02T10:37:09.020Z,93870.81
2018-07-02T10:39:38.375Z,93864.41
2018-07-02T10:42:08.336Z,93859.05
2018-07-02T10:44:37.528Z,93857.02
2018-07-02T10:47:06.710Z,93858.96
2018-07-02T10:49:35.821Z,93849.87
2018-07-02T10:52:05.811Z,93853.34
2018-07-02T10:54:35.433Z,93850.76
2018-07-02T10:57:04.662Z,93849.22
2018-07-02T10:59:34.428Z,93843.93
2018-07-02T11:02:03.993Z,93837.59
2018-07-02T11:04:33.413Z,93838.81
2018-07-02T11:07:03.844Z,93834.97
2018-07-02T11:09:33.996Z,93838.03
2018-07-02T11:12:03.099Z,93832.19
2018-07-02T11:14:32.206Z,93818.98
2018-07-02T11:17:01.402Z,93818.61
2018-07-02T11:19:30.890Z,93813.98
2018-07-02T11:21:59.967Z,93816.73
2018-07-02T11:24:29.255Z,93812.16
2018-07-02T11:26:58.397Z,93807.18
2018-07-02T11:29:27.618Z,93809.58
2018-07-02T11:31:56.691Z,93810.66
2018-07-02T11:34:25.766Z,93801.45
2018-07-02T11:36:55.675Z,93800.53
2018-07-02T11:39:25.243Z,93801.92
2018-07-02T11:41:54.368Z,93799.51
2018-07-02T11:44:23.632Z,93800.22
2018-07-02T11:46:52.824Z,93800.61
2018-07-02T11:49:22.443Z,93795.63
2018-07-02T11:51:51.667Z,93795.52
2018-07-02T11:54:20.878Z,93796.09
2018-07-02T11:56:50.270Z,93795.60
2018-07-02T11:59:19.750Z,93786.27
2018-07-02T12:01:49.446Z,93784.44
2018-07-02T12:04:18.880Z,93787.73
2018-07-02T12:06:48.409Z,93790.81
2018-07-02T12:09:17.627Z,93787.84
2018-07-02T12:11:47.099Z,93785.41
2018-07-02T12:14:16.481Z,93776.76
2018-07-02T12:16:45.634Z,93779.52
2018-07-02T12:19:14.751Z,93783.23
2018-07-02T12:21:44.975Z,93778.16
2018-07-02T12:24:14.228Z,93782.45
2018-07-02T12:26:43.473Z,93772.66
2018-07-02T12:29:13.476Z,93778.42
2018-07-02T12:31:42.751Z,93778.57
2018-07-02T12:34:12.002Z,93781.77
2018-07-02T12:36:41.226Z,93770.19
2018-07-02T12:39:13.271Z,93776.33
2018-07-02T12:41:44.069Z,93771.75
2018-07-02T12:44:14.774Z,93762.86
2018-07-02T12:46:45.535Z,93769.54
2018-07-02T12:49:14.539Z,93764.89
2018-07-02T12:51:43.685Z,93769.41
2018-07-02T12:54:12.857Z,93761.44
2018-07-02T12:56:42.065Z,93757.80
2018-07-02T12:59:11.172Z,93761.48
2018-07-02T13:01:40.247Z,93758.23
2018-07-02T13:04:09.428Z,93771.19
2018-07-02T13:06:38.519Z,93769.14
2018-07-02T13:09:10.497Z,93756.70
2018-07-02T13:11:40.565Z,93771.97
2018-07-02T13:14:10.813Z,93775.36
2018-07-02T13:16:40.429Z,93767.45
2018-07-02T13:19:09.578Z,93764.36
2018-07-02T13:21:40.104Z,93768.55
2018-07-02T13:24:09.400Z,93774.22
2018-07-02T13:26:39.467Z,93769.14
2018-07-02T13:29:08.855Z,93773.81
2018-07-02T13:31:38.783Z,93769.81
2018-07-02T13:34:08.587Z,93763.80
2018-07-02T13:36:39.374Z,93765.02
2018-07-02T13:39:10.463Z,93770.81
2018-07-02T13:41:40.518Z,93762.16
2018-07-02T13:44:11.584Z,93763.80
2018-07-02T13:46:41.029Z,93757.92
2018-07-02T13:49:11.332Z,93771.54
2018-07-02T13:51:40.971Z,93770.60
2018-07-02T13:54:11.644Z,93772.46
2018-07-02T13:56:41.480Z,93767.91
2018-07-02T13:59:12.406Z,93771.36
2018-07-02T14:01:42.340Z,93772.05
2018-07-02T14:04:11.856Z,93770.70
2018-07-02T14:06:42.249Z,93779.83
2018-07-02T14:09:12.959Z,93779.28
2018-07-02T14:11:43.403Z,93777.86
2018-07-02T14:14:12.970Z,93773.14
2018-07-02T14:16:43.409Z,93783.60
2018-07-02T14:19:13.333Z,93778.16
2018-07-02T14:21:42.793Z,93777.29
2018-07-02T14:24:12.098Z,93778.64
2018-07-02T14:26:42.679Z,93774.08
2018-07-02T14:29:13.530Z,93757.02
2018-07-02T14:31:42.880Z,93768.59
2018-07-02T14:34:12.672Z,93774.47
2018-07-02T14:36:42.201Z,93773.87
2018-07-02T14:39:13.452Z,93788.05
2018-07-02T14:41:42.971Z,93778.48
2018-07-02T14:44:12.248Z,93777.50
2018-07-02T14:46:42.129Z,93782.93
2018-07-02T14:49:11.447Z,93786.48
2018-07-02T14:51:40.945Z,93782.36
2018-07-02T14:54:10.549Z,93783.70
2018-07-02T14:56:39.673Z,93784.49
2018-07-02T14:59:08.776Z,93793.33
2018-07-02T15:01:38.024Z,93787.64
2018-07-02T15:04:07.325Z,93793.89
2018-07-02T15:06:36.331Z,93793.73
2018-07-02T15:09:09.316Z,93794.63
2018-07-02T15:11:40.732Z,93796.02
2018-07-02T15:14:11.981Z,93799.77
2018-07-02T15:16:41.195Z,93800.81
2018-07-02T15:19:10.510Z,93805.92
2018-07-02T15:21:40.953Z,93799.19
2018-07-02T15:24:10.428Z,93797.37
2018-07-02T15:26:40.362Z,93800.59
2018-07-02T15:29:10.064Z,93797.59
2018-07-02T15:31:39.542Z,93801.38
2018-07-02T15:34:09.841Z,93808.62
2018-07-02T15:36:39.170Z,93805.80
2018-07-02T15:39:10.005Z,93813.03
2018-07-02T15:41:39.714Z,93810.70
2018-07-02T15:44:09.279Z,93819.38
2018-07-02T15:46:38.387Z,93825.58
2018-07-02T15:49:07.617Z,93826.48
2018-07-02T15:51:36.919Z,93830.36
2018-07-02T15:54:06.020Z,93824.33
2018-07-02T15:56:35.145Z,93830.95
2018-07-02T15:59:04.470Z,93829.72
2018-07-02T16:01:34.038Z,93826.42
2018-07-02T16:04:03.197Z,93835.73
2018-07-02T16:06:32.803Z,93831.87
2018-07-02T16:09:01.962Z,93829.72
2018-07-02T16:11:34.044Z,93830.30
2018-07-02T16:14:03.124Z,93833.45
2018-07-02T16:16:32.410Z,93837.91
2018-07-02T16:19:02.820Z,93834.08
2018-07-02T16:21:32.447Z,93839.47
2018-07-02T16:24:01.546Z,93843.39
2018-07-02T16:26:30.712Z,93835.75
2018-07-02T16:28:59.915Z,93841.14
2018-07-02T16:31:29.118Z,93841.25
2018-07-02T16:33:58.391Z,93843.44
2018-07-02T16:36:27.743Z,93846.95
2018-07-02T16:38:56.867Z,93851.20
2018-07-02T16:41:27.309Z,93855.88
2018-07-02T16:43:56.572Z,93856.30
2018-07-02T16:46:26.248Z,93855.04
2018-07-02T16:48:55.678Z,93858.72
2018-07-02T16:51:24.793Z,93854.59
2018-07-02T16:53:53.953Z,93856.80
2018-07-02T16:56:24.194Z,93863.91
2018-07-02T16:58:53.275Z,93862.48
2018-07-02T17:01:22.801Z,93869.12
2018-07-02T17:03:51.902Z,93864.20
2018-07-02T17:06:21.493Z,93863.77
2018-07-02T17:08:50.747Z,93866.00
2018-07-02T17:11:19.948Z,93877.61
2018-07-02T17:13:49.240Z,93874.23
2018-07-02T17:16:19.246Z,93878.75
2018-07-02T17:18:48.317Z,93883.19
2018-07-02T17:21:17.428Z,93879.39
2018-07-02T17:23:46.733Z,93884.45
2018-07-02T17:26:15.970Z,93889.57
2018-07-02T17:28:45.188Z,93893.69
2018-07-02T17:31:14.350Z,93894.36
2018-07-02T17:33:44.023Z,93901.30
2018-07-02T17:36:13.194Z,93905.16
2018-07-02T17:38:42.716Z,93905.27
2018-07-02T17:41:13.093Z,93919.11
2018-07-02T17:43:43.117Z,93917.78
2018-07-02T17:46:12.703Z,93923.27
2018-07-02T17:48:42.168Z,93921.16
2018-07-02T17:51:11.463Z,93931.88
2018-07-02T17:53:40.789Z,93936.17
2018-07-02T17:56:09.907Z,93941.69
2018-07-02T17:58:38.996Z,93939.49
2018-07-02T18:01:08.175Z,93942.22
2018-07-02T18:03:37.228Z,93950.50
2018-07-02T18:06:07.677Z,93954.39
2018-07-02T18:08:36.830Z,93953.69
2018-07-02T18:11:07.067Z,93968.40
2018-07-02T18:13:36.892Z,93963.27
2018-07-02T18:16:05.967Z,93971.27
2018-07-02T18:18:35.146Z,93968.27
2018-07-02T18:21:06.114Z,93974.66
2018-07-02T18:23:35.524Z,93970.58
2018-07-02T18:26:05.342Z,93969.22
2018-07-02T18:28:35.885Z,93975.64
2018-07-02T18:31:05.176Z,93972.34
2018-07-02T18:33:35.223Z,93982.66
2018-07-02T18:36:04.845Z,93980.55
2018-07-02T18:38:34.053Z,93987.27
2018-07-02T18:41:03.186Z,93987.77
2018-07-02T18:43:32.457Z,93993.58
2018-07-02T18:46:01.686Z,93998.33
2018-07-02T18:48:31.027Z,93989.06
2018-07-02T18:51:00.319Z,93991.12
2018-07-02T18:53:29.618Z,93992.40
2018-07-02T18:56:00.172Z,93996.91
2018-07-02T18:58:30.890Z,93998.06
2018-07-02T19:01:00.073Z,94003.66
2018-07-02T19:03:29.262Z,94009.51
2018-07-02T19:05:58.453Z,94010.70
2018-07-02T19:08:27.886Z,94014.68
2018-07-02T19:10:57.718Z,94025.28
2018-07-02T19:13:26.885Z,94031.38
2018-07-02T19:15:56.001Z,94034.89
2018-07-02T19:18:26.408Z,94034.46
2018-07-02T19:20:55.630Z,94044.27
2018-07-02T19:23:25.194Z,94041.18
2018-07-02T19:25:56.437Z,94049.48
2018-07-02T19:28:26.335Z,94051.07
2018-07-02T19:30:55.532Z,94053.90
2018-07-02T19:33:24.828Z,94063.80
2018-07-02T19:35:54.092Z,94063.37
2018-07-02T19:38:23.189Z,94058.64
2018-07-02T19:40:52.457Z,94066.86
2018-07-02T19:43:23.336Z,94072.21
2018-07-02T19:45:53.929Z,94075.46
2018-07-02T19:48:23.440Z,94083.84
2018-07-02T19:50:53.418Z,94082.00
2018-07-02T19:53:22.535Z,94085.72
2018-07-02T19:55:51.851Z,94084.93
2018-07-02T19:58:21.094Z,94095.75
2018-07-02T20:00:51.742Z,94097.81
2018-07-02T20:03:20.904Z,94095.22
2018-07-02T20:05:50.363Z,94092.33
2018-07-02T20:08:20.708Z,94098.63
2018-07-02T20:10:49.946Z,94106.52
2018-07-02T20:13:19.172Z,94108.61
2018-07-02T20:15:48.685Z,94114.67
2018-07-02T20:18:17.957Z,94117.80
2018-07-02T20:20:47.807Z,94123.05
2018-07-02T20:23:16.908Z,94116.98
2018-07-02T20:25:46.384Z,94120.42
2018-07-02T20:28:15.571Z,94120.41
2018-07-02T20:30:44.677Z,94123.02
2018-07-02T20:33:13.938Z,94123.55
2018-07-02T20:35:43.020Z,94125.61
2018-07-02T20:38:12.522Z,94127.97
2018-07-02T20:40:41.889Z,94136.62
2018-07-02T20:43:11.881Z,94133.23
2018-07-02T20:45:41.314Z,94137.68
2018-07-02T20:48:11.607Z,94137.17
2018-07-02T20:50:41.698Z,94144.72
2018-07-02T20:53:11.432Z,94139.75
2018-07-02T20:55:40.627Z,94145.25
2018-07-02T20:58:09.890Z,94150.39
2018-07-02T21:00:39.878Z,94150.92
2018-07-02T21:03:09.985Z,94147.94
2018-07-02T21:05:39.679Z,94152.23
2018-07-02T21:08:08.880Z,94146.47
2018-07-02T21:10:38.204Z,94145.66
2018-07-02T21:13:07.226Z,94145.96
2018-07-02T21:15:36.445Z,94147.63
2018-07-02T21:18:05.880Z,94146.23
2018-07-02T21:20:34.902Z,94146.24
2018-07-02T21:23:04.260Z,94145.16
2018-07-02T21:25:33.402Z,94153.76
2018-07-02T21:28:02.666Z,94162.38
2018-07-02T21:30:31.823Z,94159.44
2018-07-02T21:33:00.887Z,94157.44
2018-07-02T21:35:30.080Z,94164.78
2018-07-02T21:37:59.187Z,94166.09
2018-07-02T21:40:28.996Z,94169.45
2018-07-02T21:42:58.051Z,94164.00
2018-07-02T21:45:27.172Z,94166.09
2018-07-02T21:47:56.216Z,94169.16
2018-07-02T21:50:25.230Z,94172.77
2018-07-02T21:52:54.878Z,94170.47
2018-07-02T21:55:24.109Z,94168.27
2018-07-02T21:57:53.442Z,94172.17
2018-07-02T22:00:22.926Z,94175.88
2018-07-02T22:02:52.080Z,94175.39
2018-07-02T22:05:21.246Z,94177.50
2018-07-02T22:07:51.131Z,94181.41
2018-07-02T22:10:20.214Z,94181.61
2018-07-02T22:12:49.218Z,94181.56
2018-07-02T22:15:18.329Z,94187.81
2018-07-02T22:17:47.368Z,94191.23
2018-07-02T22:20:17.637Z,94188.28
2018-07-02T22:22:46.636Z,94195.59
2018-07-02T22:25:15.759Z,94200.78
2018-07-02T22:27:44.854Z,94201.77
2018-07-02T22:30:13.928Z,94197.48
2018-07-02T22:32:42.980Z,94195.16
2018-07-02T22:35:12.552Z,94193.28
2018-07-02T22:37:41.591Z,94203.55
2018-07-02T22:40:10.558Z,94197.21
2018-07-02T22:42:39.595Z,94196.79
2018-07-02T22:45:09.955Z,94198.92
2018-07-02T22:47:39.084Z,94201.05
2018-07-02T22:50:08.184Z,94201.20
2018-07-02T22:52:37.738Z,94202.23
2018-07-02T22:55:06.843Z,94203.80
2018-07-02T22:57:36.124Z,94202.66
2018-07-02T23:00:05.662Z,94202.87
2018-07-02T23:02:35.484Z,94207.16
2018-07-02T23:05:04.647Z,94200.34
2018-07-02T23:07:34.547Z,94200.94
2018-07-02T23:10:03.971Z,94203.91
2018-07-02T23:12:33.342Z,94204.73
2018-07-02T23:15:02.571Z,94207.45
2018-07-02T23:17:32.102Z,94204.75
2018-07-02T23:20:01.675Z,94206.62
2018-07-02T23:23:04.290Z,94207.34
2018-07-02T23:25:33.823Z,94209.55
2018-07-02T23:28:04.302Z,94211.77
2018-07-02T23:30:34.601Z,94205.31
2018-07-02T23:33:04.041Z,94208.78
2018-07-02T23:35:33.411Z,94211.22
2018-07-02T23:38:02.633Z,94209.63
2018-07-02T23:40:32.091Z,94202.55
2018-07-02T23:43:02.325Z,94215.19
2018-07-02T23:45:31.745Z,94211.45
2018-07-02T23:48:00.949Z,94201.20
2018-07-02T23:50:30.439Z,94202.55
2018-07-02T23:52:59.660Z,94202.88
2018-07-02T23:55:29.140Z,94199.66
2018-07-02T23:57:58.577Z,94207.34
